Terminal Aerodrome Forecast
Issued by NWS Austin/San Antonio, TX

Home | Current Version | Previous Version | Text Only | Print | Product List | Glossary On
Versions: 1 2 3 4 5 6 7 8 9 10 11 12 13 14 15 16 17 18
000
FTUS44 KEWX 051124
TAFDRT
TAF
KDRT 051124Z 0512/0612 12012G22KT P6SM SCT020 OVC035
      TEMPO 0512/0516 BKN018
     FM052100 13012G22KT P6SM VCTS OVC050CB
     FM060400 13013G23KT P6SM BKN035=

USA.gov is the U.S. government's official web portal to all federal, state and local government web resources and services.